sensor_id;sensor_type;location;lat;lon;timestamp;temperature;humidity
26224;DHT22;14820;48.682;8.890;2022-07-19T00:01:26;17.60;92.70
26224;DHT22;14820;48.682;8.890;2022-07-19T00:03:52;17.60;92.60
26224;DHT22;14820;48.682;8.890;2022-07-19T00:06:18;17.60;92.60
26224;DHT22;14820;48.682;8.890;2022-07-19T00:08:43;17.50;93.00
26224;DHT22;14820;48.682;8.890;2022-07-19T00:11:09;17.50;92.90
26224;DHT22;14820;48.682;8.890;2022-07-19T00:13:35;17.40;93.30
26224;DHT22;14820;48.682;8.890;2022-07-19T00:16:00;17.40;93.00
26224;DHT22;14820;48.682;8.890;2022-07-19T00:18:26;17.40;93.40
26224;DHT22;14820;48.682;8.890;2022-07-19T00:20:52;17.30;93.70
26224;DHT22;14820;48.682;8.890;2022-07-19T00:23:17;17.30;93.60
26224;DHT22;14820;48.682;8.890;2022-07-19T00:25:43;17.20;93.90
26224;DHT22;14820;48.682;8.890;2022-07-19T00:28:08;17.20;93.90
26224;DHT22;14820;48.682;8.890;2022-07-19T00:30:34;17.10;94.30
26224;DHT22;14820;48.682;8.890;2022-07-19T00:33:00;17.10;94.40
26224;DHT22;14820;48.682;8.890;2022-07-19T00:35:27;17.00;94.50
26224;DHT22;14820;48.682;8.890;2022-07-19T00:37:52;17.00;94.70
26224;DHT22;14820;48.682;8.890;2022-07-19T00:40:22;16.90;94.80
26224;DHT22;14820;48.682;8.890;2022-07-19T00:42:49;16.80;95.30
26224;DHT22;14820;48.682;8.890;2022-07-19T00:45:14;16.80;95.30
26224;DHT22;14820;48.682;8.890;2022-07-19T00:47:40;16.80;95.40
26224;DHT22;14820;48.682;8.890;2022-07-19T00:50:06;16.70;95.50
26224;DHT22;14820;48.682;8.890;2022-07-19T00:52:32;16.70;96.00
26224;DHT22;14820;48.682;8.890;2022-07-19T00:54:59;16.60;95.80
26224;DHT22;14820;48.682;8.890;2022-07-19T00:57:25;16.60;95.90
26224;DHT22;14820;48.682;8.890;2022-07-19T00:59:53;16.50;96.10
26224;DHT22;14820;48.682;8.890;2022-07-19T01:02:20;16.60;96.00
26224;DHT22;14820;48.682;8.890;2022-07-19T01:04:46;16.50;96.30
26224;DHT22;14820;48.682;8.890;2022-07-19T01:07:13;16.50;96.60
26224;DHT22;14820;48.682;8.890;2022-07-19T01:09:39;16.50;96.50
26224;DHT22;14820;48.682;8.890;2022-07-19T01:12:06;16.50;96.40
26224;DHT22;14820;48.682;8.890;2022-07-19T01:14:32;16.40;96.70
26224;DHT22;14820;48.682;8.890;2022-07-19T01:17:01;16.50;96.80
26224;DHT22;14820;48.682;8.890;2022-07-19T01:19:26;16.40;96.70
26224;DHT22;14820;48.682;8.890;2022-07-19T01:21:52;16.50;96.70
26224;DHT22;14820;48.682;8.890;2022-07-19T01:24:18;16.50;97.00
26224;DHT22;14820;48.682;8.890;2022-07-19T01:26:43;16.40;97.40
26224;DHT22;14820;48.682;8.890;2022-07-19T01:29:15;16.40;97.50
26224;DHT22;14820;48.682;8.890;2022-07-19T01:31:41;16.30;97.50
26224;DHT22;14820;48.682;8.890;2022-07-19T01:34:07;16.30;98.00
26224;DHT22;14820;48.682;8.890;2022-07-19T01:36:32;16.20;97.90
26224;DHT22;14820;48.682;8.890;2022-07-19T01:38:58;16.20;98.30
26224;DHT22;14820;48.682;8.890;2022-07-19T01:41:24;16.10;98.40
26224;DHT22;14820;48.682;8.890;2022-07-19T01:43:50;16.00;98.60
26224;DHT22;14820;48.682;8.890;2022-07-19T01:46:16;16.00;98.90
26224;DHT22;14820;48.682;8.890;2022-07-19T01:48:42;16.00;99.20
26224;DHT22;14820;48.682;8.890;2022-07-19T01:51:07;15.90;99.00
26224;DHT22;14820;48.682;8.890;2022-07-19T01:53:33;15.90;99.40
26224;DHT22;14820;48.682;8.890;2022-07-19T01:55:59;15.80;99.70
26224;DHT22;14820;48.682;8.890;2022-07-19T01:58:24;15.70;99.80
26224;DHT22;14820;48.682;8.890;2022-07-19T02:00:50;15.80;99.90
26224;DHT22;14820;48.682;8.890;2022-07-19T02:03:16;15.80;99.90
26224;DHT22;14820;48.682;8.890;2022-07-19T02:05:43;15.70;99.90
26224;DHT22;14820;48.682;8.890;2022-07-19T02:08:09;15.70;99.90
26224;DHT22;14820;48.682;8.890;2022-07-19T02:10:35;15.70;99.90
26224;DHT22;14820;48.682;8.890;2022-07-19T02:13:01;15.70;99.90
26224;DHT22;14820;48.682;8.890;2022-07-19T02:15:26;15.70;99.90
26224;DHT22;14820;48.682;8.890;2022-07-19T02:17:52;15.80;99.90
26224;DHT22;14820;48.682;8.890;2022-07-19T02:20:18;15.80;99.90
26224;DHT22;14820;48.682;8.890;2022-07-19T02:22:44;15.80;99.90
26224;DHT22;14820;48.682;8.890;2022-07-19T02:25:10;15.70;99.90
26224;DHT22;14820;48.682;8.890;2022-07-19T02:27:36;15.70;99.90
26224;DHT22;14820;48.682;8.890;2022-07-19T02:30:03;15.70;99.90
26224;DHT22;14820;48.682;8.890;2022-07-19T02:32:29;15.60;99.90
26224;DHT22;14820;48.682;8.890;2022-07-19T02:34:54;15.50;99.90
26224;DHT22;14820;48.682;8.890;2022-07-19T02:37:20;15.50;99.90
26224;DHT22;14820;48.682;8.890;2022-07-19T02:39:46;15.40;99.90
26224;DHT22;14820;48.682;8.890;2022-07-19T02:42:11;15.40;99.90
26224;DHT22;14820;48.682;8.890;2022-07-19T02:44:37;15.30;99.90
26224;DHT22;14820;48.682;8.890;2022-07-19T02:47:03;15.30;99.90
26224;DHT22;14820;48.682;8.890;2022-07-19T02:49:28;15.30;99.90
26224;DHT22;14820;48.682;8.890;2022-07-19T02:51:54;15.30;99.90
26224;DHT22;14820;48.682;8.890;2022-07-19T02:54:19;15.20;99.90
26224;DHT22;14820;48.682;8.890;2022-07-19T02:56:45;15.10;99.90
26224;DHT22;14820;48.682;8.890;2022-07-19T02:59:11;15.10;99.90
26224;DHT22;14820;48.682;8.890;2022-07-19T03:01:36;15.10;99.90
26224;DHT22;14820;48.682;8.890;2022-07-19T03:04:02;15.10;99.90
26224;DHT22;14820;48.682;8.890;2022-07-19T03:06:28;15.20;99.90
26224;DHT22;14820;48.682;8.890;2022-07-19T03:08:54;15.20;99.90
26224;DHT22;14820;48.682;8.890;2022-07-19T03:11:19;15.20;99.90
26224;DHT22;14820;48.682;8.890;2022-07-19T03:13:45;15.20;99.90
26224;DHT22;14820;48.682;8.890;2022-07-19T03:16:11;15.10;99.90
26224;DHT22;14820;48.682;8.890;2022-07-19T03:18:36;15.10;99.90
26224;DHT22;14820;48.682;8.890;2022-07-19T03:21:02;15.00;99.90
26224;DHT22;14820;48.682;8.890;2022-07-19T03:23:31;15.00;99.90
26224;DHT22;14820;48.682;8.890;2022-07-19T03:25:57;15.10;99.90
26224;DHT22;14820;48.682;8.890;2022-07-19T03:28:22;15.00;99.90
26224;DHT22;14820;48.682;8.890;2022-07-19T03:30:48;15.00;99.90
26224;DHT22;14820;48.682;8.890;2022-07-19T03:33:14;14.90;99.90
26224;DHT22;14820;48.682;8.890;2022-07-19T03:35:43;14.90;99.90
26224;DHT22;14820;48.682;8.890;2022-07-19T03:38:10;14.80;99.90
26224;DHT22;14820;48.682;8.890;2022-07-19T03:40:35;14.70;99.90
26224;DHT22;14820;48.682;8.890;2022-07-19T03:43:01;14.70;99.90
26224;DHT22;14820;48.682;8.890;2022-07-19T03:45:27;14.60;99.90
26224;DHT22;14820;48.682;8.890;2022-07-19T03:47:52;14.60;99.90
26224;DHT22;14820;48.682;8.890;2022-07-19T03:50:18;14.60;99.90
26224;DHT22;14820;48.682;8.890;2022-07-19T03:52:44;14.60;99.90
26224;DHT22;14820;48.682;8.890;2022-07-19T03:55:09;14.50;99.90
26224;DHT22;14820;48.682;8.890;2022-07-19T03:57:35;14.50;99.90
26224;DHT22;14820;48.682;8.890;2022-07-19T04:00:00;14.40;99.90
26224;DHT22;14820;48.682;8.890;2022-07-19T04:02:26;14.40;99.90
26224;DHT22;14820;48.682;8.890;2022-07-19T04:04:52;14.40;99.90
26224;DHT22;14820;48.682;8.890;2022-07-19T04:07:18;14.40;99.90
26224;DHT22;14820;48.682;8.890;2022-07-19T04:09:43;14.40;99.90
26224;DHT22;14820;48.682;8.890;2022-07-19T04:12:09;14.40;99.90
26224;DHT22;14820;48.682;8.890;2022-07-19T04:14:34;14.40;99.90
26224;DHT22;14820;48.682;8.890;2022-07-19T04:17:00;14.50;99.90
26224;DHT22;14820;48.682;8.890;2022-07-19T04:19:30;14.50;99.90
26224;DHT22;14820;48.682;8.890;2022-07-19T04:21:56;14.40;99.90
26224;DHT22;14820;48.682;8.890;2022-07-19T04:24:21;14.40;99.90
26224;DHT22;14820;48.682;8.890;2022-07-19T04:26:47;14.40;99.90
26224;DHT22;14820;48.682;8.890;2022-07-19T04:29:13;14.30;99.90
26224;DHT22;14820;48.682;8.890;2022-07-19T04:31:38;14.40;99.90
26224;DHT22;14820;48.682;8.890;2022-07-19T04:34:04;14.40;99.90
26224;DHT22;14820;48.682;8.890;2022-07-19T04:36:30;14.40;99.90
26224;DHT22;14820;48.682;8.890;2022-07-19T04:38:55;14.40;99.90
26224;DHT22;14820;48.682;8.890;2022-07-19T04:41:21;14.40;99.90
26224;DHT22;14820;48.682;8.890;2022-07-19T04:43:47;14.50;99.90
26224;DHT22;14820;48.682;8.890;2022-07-19T04:46:12;14.50;99.90
26224;DHT22;14820;48.682;8.890;2022-07-19T04:48:38;14.60;99.90
26224;DHT22;14820;48.682;8.890;2022-07-19T04:51:06;14.60;99.90
26224;DHT22;14820;48.682;8.890;2022-07-19T04:53:32;14.60;99.90
26224;DHT22;14820;48.682;8.890;2022-07-19T04:55:58;14.70;99.90
26224;DHT22;14820;48.682;8.890;2022-07-19T04:58:23;14.80;99.90
26224;DHT22;14820;48.682;8.890;2022-07-19T05:00:49;14.80;99.90
26224;DHT22;14820;48.682;8.890;2022-07-19T05:03:15;14.90;99.90
26224;DHT22;14820;48.682;8.890;2022-07-19T05:05:41;14.90;99.90
26224;DHT22;14820;48.682;8.890;2022-07-19T05:08:06;15.00;99.90
26224;DHT22;14820;48.682;8.890;2022-07-19T05:10:32;15.00;99.90
26224;DHT22;14820;48.682;8.890;2022-07-19T05:12:58;15.00;99.90
26224;DHT22;14820;48.682;8.890;2022-07-19T05:15:23;15.10;99.90
26224;DHT22;14820;48.682;8.890;2022-07-19T05:17:49;15.10;99.90
26224;DHT22;14820;48.682;8.890;2022-07-19T05:20:15;15.20;99.90
26224;DHT22;14820;48.682;8.890;2022-07-19T05:22:42;15.20;99.90
26224;DHT22;14820;48.682;8.890;2022-07-19T05:25:09;15.30;99.90
26224;DHT22;14820;48.682;8.890;2022-07-19T05:27:36;15.30;99.90
26224;DHT22;14820;48.682;8.890;2022-07-19T05:30:05;15.40;99.90
26224;DHT22;14820;48.682;8.890;2022-07-19T05:32:32;15.50;99.90
26224;DHT22;14820;48.682;8.890;2022-07-19T05:34:57;15.70;99.90
26224;DHT22;14820;48.682;8.890;2022-07-19T05:37:23;15.70;99.90
26224;DHT22;14820;48.682;8.890;2022-07-19T05:39:49;15.90;99.90
26224;DHT22;14820;48.682;8.890;2022-07-19T05:42:14;15.90;99.90
26224;DHT22;14820;48.682;8.890;2022-07-19T05:44:40;16.00;99.90
26224;DHT22;14820;48.682;8.890;2022-07-19T05:47:06;16.10;99.90
26224;DHT22;14820;48.682;8.890;2022-07-19T05:49:31;16.20;99.90
26224;DHT22;14820;48.682;8.890;2022-07-19T05:51:57;16.30;99.90
26224;DHT22;14820;48.682;8.890;2022-07-19T05:54:23;16.30;99.90
26224;DHT22;14820;48.682;8.890;2022-07-19T05:56:49;16.50;99.90
26224;DHT22;14820;48.682;8.890;2022-07-19T05:59:15;16.60;99.90
26224;DHT22;14820;48.682;8.890;2022-07-19T06:01:40;16.60;99.90
26224;DHT22;14820;48.682;8.890;2022-07-19T06:04:06;16.80;99.90
26224;DHT22;14820;48.682;8.890;2022-07-19T06:06:33;16.90;99.90
26224;DHT22;14820;48.682;8.890;2022-07-19T06:09:02;17.00;99.90
26224;DHT22;14820;48.682;8.890;2022-07-19T06:11:28;17.10;99.90
26224;DHT22;14820;48.682;8.890;2022-07-19T06:13:55;17.20;99.90
26224;DHT22;14820;48.682;8.890;2022-07-19T06:16:21;17.40;99.90
26224;DHT22;14820;48.682;8.890;2022-07-19T06:18:46;17.50;99.90
26224;DHT22;14820;48.682;8.890;2022-07-19T06:21:15;17.60;99.90
26224;DHT22;14820;48.682;8.890;2022-07-19T06:23:42;17.70;99.90
26224;DHT22;14820;48.682;8.890;2022-07-19T06:26:08;17.90;99.90
26224;DHT22;14820;48.682;8.890;2022-07-19T06:28:34;18.10;99.90
26224;DHT22;14820;48.682;8.890;2022-07-19T06:31:00;18.20;99.90
26224;DHT22;14820;48.682;8.890;2022-07-19T06:33:26;18.40;99.90
26224;DHT22;14820;48.682;8.890;2022-07-19T06:35:52;18.50;99.90
26224;DHT22;14820;48.682;8.890;2022-07-19T06:38:18;18.60;99.90
26224;DHT22;14820;48.682;8.890;2022-07-19T06:40:44;18.80;99.90
26224;DHT22;14820;48.682;8.890;2022-07-19T06:43:10;19.00;99.90
26224;DHT22;14820;48.682;8.890;2022-07-19T06:45:36;19.10;99.90
26224;DHT22;14820;48.682;8.890;2022-07-19T06:48:02;19.30;99.90
26224;DHT22;14820;48.682;8.890;2022-07-19T06:50:28;19.50;99.90
26224;DHT22;14820;48.682;8.890;2022-07-19T06:52:54;19.60;99.90
26224;DHT22;14820;48.682;8.890;2022-07-19T06:55:20;19.80;99.90
26224;DHT22;14820;48.682;8.890;2022-07-19T06:57:45;20.00;99.90
26224;DHT22;14820;48.682;8.890;2022-07-19T07:00:11;20.20;99.90
26224;DHT22;14820;48.682;8.890;2022-07-19T07:02:39;20.30;99.90
26224;DHT22;14820;48.682;8.890;2022-07-19T07:05:06;20.50;99.90
26224;DHT22;14820;48.682;8.890;2022-07-19T07:07:32;20.80;99.90
26224;DHT22;14820;48.682;8.890;2022-07-19T07:09:58;21.00;99.90
26224;DHT22;14820;48.682;8.890;2022-07-19T07:12:27;21.20;99.90
26224;DHT22;14820;48.682;8.890;2022-07-19T07:14:52;21.40;99.90
26224;DHT22;14820;48.682;8.890;2022-07-19T07:17:18;21.60;99.90
26224;DHT22;14820;48.682;8.890;2022-07-19T07:19:44;21.70;99.90
26224;DHT22;14820;48.682;8.890;2022-07-19T07:22:09;22.00;99.90
26224;DHT22;14820;48.682;8.890;2022-07-19T07:24:35;22.20;99.70
26224;DHT22;14820;48.682;8.890;2022-07-19T07:27:01;22.30;98.80
26224;DHT22;14820;48.682;8.890;2022-07-19T07:29:27;22.60;98.10
26224;DHT22;14820;48.682;8.890;2022-07-19T07:31:53;22.80;95.90
26224;DHT22;14820;48.682;8.890;2022-07-19T07:34:18;23.00;95.30
26224;DHT22;14820;48.682;8.890;2022-07-19T07:36:44;23.20;93.70
26224;DHT22;14820;48.682;8.890;2022-07-19T07:39:11;23.50;92.90
26224;DHT22;14820;48.682;8.890;2022-07-19T07:41:37;23.60;92.50
26224;DHT22;14820;48.682;8.890;2022-07-19T07:44:03;23.70;92.10
26224;DHT22;14820;48.682;8.890;2022-07-19T07:46:29;23.90;91.90
26224;DHT22;14820;48.682;8.890;2022-07-19T07:48:55;24.10;91.50
26224;DHT22;14820;48.682;8.890;2022-07-19T07:51:21;24.20;91.40
26224;DHT22;14820;48.682;8.890;2022-07-19T07:53:46;24.30;90.80
26224;DHT22;14820;48.682;8.890;2022-07-19T07:56:12;24.50;90.20
26224;DHT22;14820;48.682;8.890;2022-07-19T07:58:37;24.60;90.10
26224;DHT22;14820;48.682;8.890;2022-07-19T08:01:03;24.70;89.10
26224;DHT22;14820;48.682;8.890;2022-07-19T08:03:29;24.80;88.20
26224;DHT22;14820;48.682;8.890;2022-07-19T08:05:55;25.00;87.80
26224;DHT22;14820;48.682;8.890;2022-07-19T08:08:24;25.10;86.60
26224;DHT22;14820;48.682;8.890;2022-07-19T08:10:55;25.30;85.90
26224;DHT22;14820;48.682;8.890;2022-07-19T08:13:22;25.50;83.10
26224;DHT22;14820;48.682;8.890;2022-07-19T08:15:48;25.70;80.70
26224;DHT22;14820;48.682;8.890;2022-07-19T08:18:14;25.70;80.50
26224;DHT22;14820;48.682;8.890;2022-07-19T08:20:40;25.80;79.70
26224;DHT22;14820;48.682;8.890;2022-07-19T08:23:06;25.90;79.30
26224;DHT22;14820;48.682;8.890;2022-07-19T08:25:32;26.10;77.20
26224;DHT22;14820;48.682;8.890;2022-07-19T08:28:01;26.10;75.90
26224;DHT22;14820;48.682;8.890;2022-07-19T08:30:28;26.20;75.30
26224;DHT22;14820;48.682;8.890;2022-07-19T08:32:53;26.30;74.60
26224;DHT22;14820;48.682;8.890;2022-07-19T08:35:19;26.50;72.90
26224;DHT22;14820;48.682;8.890;2022-07-19T08:37:45;26.60;71.00
26224;DHT22;14820;48.682;8.890;2022-07-19T08:40:11;26.70;70.40
26224;DHT22;14820;48.682;8.890;2022-07-19T08:42:37;26.70;70.00
26224;DHT22;14820;48.682;8.890;2022-07-19T08:45:07;26.90;68.70
26224;DHT22;14820;48.682;8.890;2022-07-19T08:47:34;27.00;67.10
26224;DHT22;14820;48.682;8.890;2022-07-19T08:50:01;27.10;66.80
26224;DHT22;14820;48.682;8.890;2022-07-19T08:52:28;27.20;65.10
26224;DHT22;14820;48.682;8.890;2022-07-19T08:54:55;27.10;64.10
26224;DHT22;14820;48.682;8.890;2022-07-19T08:57:22;27.10;65.10
26224;DHT22;14820;48.682;8.890;2022-07-19T09:00:07;27.30;65.20
26224;DHT22;14820;48.682;8.890;2022-07-19T09:02:33;27.40;65.00
26224;DHT22;14820;48.682;8.890;2022-07-19T09:05:00;27.50;64.50
26224;DHT22;14820;48.682;8.890;2022-07-19T09:07:26;27.60;64.00
26224;DHT22;14820;48.682;8.890;2022-07-19T09:09:52;27.70;63.60
26224;DHT22;14820;48.682;8.890;2022-07-19T09:12:18;27.70;63.30
26224;DHT22;14820;48.682;8.890;2022-07-19T09:14:53;27.80;62.20
26224;DHT22;14820;48.682;8.890;2022-07-19T09:17:19;27.90;62.00
26224;DHT22;14820;48.682;8.890;2022-07-19T09:19:47;27.90;61.80
26224;DHT22;14820;48.682;8.890;2022-07-19T09:22:18;28.00;62.70
26224;DHT22;14820;48.682;8.890;2022-07-19T09:24:49;28.20;61.60
26224;DHT22;14820;48.682;8.890;2022-07-19T09:27:18;28.40;61.20
26224;DHT22;14820;48.682;8.890;2022-07-19T09:29:47;28.40;61.00
26224;DHT22;14820;48.682;8.890;2022-07-19T09:32:18;28.40;59.70
26224;DHT22;14820;48.682;8.890;2022-07-19T09:34:58;28.50;60.10
26224;DHT22;14820;48.682;8.890;2022-07-19T09:37:26;28.40;61.10
26224;DHT22;14820;48.682;8.890;2022-07-19T09:40:16;28.60;60.70
26224;DHT22;14820;48.682;8.890;2022-07-19T09:42:43;28.70;60.40
26224;DHT22;14820;48.682;8.890;2022-07-19T09:45:11;28.80;59.50
26224;DHT22;14820;48.682;8.890;2022-07-19T09:47:42;28.80;59.40
26224;DHT22;14820;48.682;8.890;2022-07-19T09:50:14;28.90;59.20
26224;DHT22;14820;48.682;8.890;2022-07-19T09:52:43;29.00;58.20
26224;DHT22;14820;48.682;8.890;2022-07-19T09:55:10;29.00;57.80
26224;DHT22;14820;48.682;8.890;2022-07-19T09:57:40;29.00;58.10
26224;DHT22;14820;48.682;8.890;2022-07-19T10:00:08;29.00;58.50
26224;DHT22;14820;48.682;8.890;2022-07-19T10:02:36;28.90;58.60
26224;DHT22;14820;48.682;8.890;2022-07-19T10:05:03;29.00;58.40
26224;DHT22;14820;48.682;8.890;2022-07-19T10:07:31;29.00;58.80
26224;DHT22;14820;48.682;8.890;2022-07-19T10:10:00;29.00;59.00
26224;DHT22;14820;48.682;8.890;2022-07-19T10:12:28;29.10;58.50
26224;DHT22;14820;48.682;8.890;2022-07-19T10:14:55;29.20;58.90
26224;DHT22;14820;48.682;8.890;2022-07-19T10:17:32;29.30;58.40
26224;DHT22;14820;48.682;8.890;2022-07-19T10:20:00;29.60;57.00
26224;DHT22;14820;48.682;8.890;2022-07-19T10:22:27;29.70;56.90
26224;DHT22;14820;48.682;8.890;2022-07-19T10:24:59;29.80;56.60
26224;DHT22;14820;48.682;8.890;2022-07-19T10:32:42;29.90;56.10
26224;DHT22;14820;48.682;8.890;2022-07-19T10:37:44;29.90;57.30
26224;DHT22;14820;48.682;8.890;2022-07-19T10:40:10;30.00;56.50
26224;DHT22;14820;48.682;8.890;2022-07-19T10:42:36;30.10;56.10
26224;DHT22;14820;48.682;8.890;2022-07-19T10:50:15;30.40;55.80
26224;DHT22;14820;48.682;8.890;2022-07-19T10:52:44;30.40;54.90
26224;DHT22;14820;48.682;8.890;2022-07-19T11:00:43;30.70;53.90
26224;DHT22;14820;48.682;8.890;2022-07-19T11:05:48;30.90;52.40
26224;DHT22;14820;48.682;8.890;2022-07-19T11:08:14;30.90;51.90
26224;DHT22;14820;48.682;8.890;2022-07-19T11:10:40;31.00;50.70
26224;DHT22;14820;48.682;8.890;2022-07-19T11:13:06;31.00;50.80
26224;DHT22;14820;48.682;8.890;2022-07-19T11:15:32;31.10;50.20
26224;DHT22;14820;48.682;8.890;2022-07-19T11:18:06;31.20;49.90
26224;DHT22;14820;48.682;8.890;2022-07-19T11:20:34;31.00;49.70
26224;DHT22;14820;48.682;8.890;2022-07-19T11:23:00;31.00;49.60
26224;DHT22;14820;48.682;8.890;2022-07-19T11:25:32;31.00;49.70
26224;DHT22;14820;48.682;8.890;2022-07-19T11:27:59;31.00;50.00
26224;DHT22;14820;48.682;8.890;2022-07-19T11:30:26;31.00;50.00
26224;DHT22;14820;48.682;8.890;2022-07-19T11:32:54;31.10;49.60
26224;DHT22;14820;48.682;8.890;2022-07-19T11:35:20;31.10;49.60
26224;DHT22;14820;48.682;8.890;2022-07-19T11:37:46;31.10;49.80
26224;DHT22;14820;48.682;8.890;2022-07-19T11:40:13;31.20;49.40
26224;DHT22;14820;48.682;8.890;2022-07-19T11:42:40;31.20;49.70
26224;DHT22;14820;48.682;8.890;2022-07-19T11:45:16;31.40;48.50
26224;DHT22;14820;48.682;8.890;2022-07-19T11:47:47;31.50;48.80
26224;DHT22;14820;48.682;8.890;2022-07-19T11:50:24;31.50;48.80
26224;DHT22;14820;48.682;8.890;2022-07-19T11:52:55;31.50;48.90
26224;DHT22;14820;48.682;8.890;2022-07-19T11:55:28;31.50;48.90
26224;DHT22;14820;48.682;8.890;2022-07-19T11:57:54;31.60;49.50
26224;DHT22;14820;48.682;8.890;2022-07-19T12:00:22;31.60;49.10
26224;DHT22;14820;48.682;8.890;2022-07-19T12:02:59;31.60;48.00
26224;DHT22;14820;48.682;8.890;2022-07-19T12:05:34;31.50;48.00
26224;DHT22;14820;48.682;8.890;2022-07-19T12:08:04;31.70;48.20
26224;DHT22;14820;48.682;8.890;2022-07-19T12:10:34;31.80;48.40
26224;DHT22;14820;48.682;8.890;2022-07-19T12:13:01;31.90;47.60
26224;DHT22;14820;48.682;8.890;2022-07-19T12:15:42;32.10;47.60
26224;DHT22;14820;48.682;8.890;2022-07-19T12:18:08;32.10;48.30
26224;DHT22;14820;48.682;8.890;2022-07-19T12:20:33;32.00;48.20
26224;DHT22;14820;48.682;8.890;2022-07-19T12:23:16;32.00;47.90
26224;DHT22;14820;48.682;8.890;2022-07-19T12:25:43;31.90;47.90
26224;DHT22;14820;48.682;8.890;2022-07-19T12:28:08;32.00;48.10
26224;DHT22;14820;48.682;8.890;2022-07-19T12:30:34;32.00;49.30
26224;DHT22;14820;48.682;8.890;2022-07-19T12:33:11;32.20;48.80
26224;DHT22;14820;48.682;8.890;2022-07-19T12:35:43;32.10;47.50
26224;DHT22;14820;48.682;8.890;2022-07-19T12:38:09;32.20;47.60
26224;DHT22;14820;48.682;8.890;2022-07-19T12:40:38;32.30;47.50
26224;DHT22;14820;48.682;8.890;2022-07-19T12:43:04;32.30;47.80
26224;DHT22;14820;48.682;8.890;2022-07-19T12:45:39;32.30;47.60
26224;DHT22;14820;48.682;8.890;2022-07-19T12:48:07;32.30;47.90
26224;DHT22;14820;48.682;8.890;2022-07-19T12:50:36;32.20;47.60
26224;DHT22;14820;48.682;8.890;2022-07-19T12:53:04;32.30;47.70
26224;DHT22;14820;48.682;8.890;2022-07-19T12:55:32;32.30;47.80
26224;DHT22;14820;48.682;8.890;2022-07-19T12:57:59;32.30;48.20
26224;DHT22;14820;48.682;8.890;2022-07-19T13:00:27;32.30;48.00
26224;DHT22;14820;48.682;8.890;2022-07-19T13:02:54;32.50;47.30
26224;DHT22;14820;48.682;8.890;2022-07-19T13:05:21;32.60;47.30
26224;DHT22;14820;48.682;8.890;2022-07-19T13:07:47;32.60;47.40
26224;DHT22;14820;48.682;8.890;2022-07-19T13:10:13;32.60;47.50
26224;DHT22;14820;48.682;8.890;2022-07-19T13:12:40;32.60;46.00
26224;DHT22;14820;48.682;8.890;2022-07-19T13:15:06;32.50;46.50
26224;DHT22;14820;48.682;8.890;2022-07-19T13:17:33;32.50;47.10
26224;DHT22;14820;48.682;8.890;2022-07-19T13:19:59;32.60;47.10
26224;DHT22;14820;48.682;8.890;2022-07-19T13:22:25;32.70;46.90
26224;DHT22;14820;48.682;8.890;2022-07-19T13:24:50;32.60;47.10
26224;DHT22;14820;48.682;8.890;2022-07-19T13:27:17;32.70;47.30
26224;DHT22;14820;48.682;8.890;2022-07-19T13:29:43;32.90;46.60
26224;DHT22;14820;48.682;8.890;2022-07-19T13:32:09;32.90;45.70
26224;DHT22;14820;48.682;8.890;2022-07-19T13:34:38;33.00;45.80
26224;DHT22;14820;48.682;8.890;2022-07-19T13:37:04;32.90;46.10
26224;DHT22;14820;48.682;8.890;2022-07-19T13:39:30;32.90;46.30
26224;DHT22;14820;48.682;8.890;2022-07-19T13:41:56;32.80;45.70
26224;DHT22;14820;48.682;8.890;2022-07-19T13:44:22;32.80;45.10
26224;DHT22;14820;48.682;8.890;2022-07-19T13:46:48;32.80;45.20
26224;DHT22;14820;48.682;8.890;2022-07-19T13:49:14;32.90;45.40
26224;DHT22;14820;48.682;8.890;2022-07-19T13:51:40;32.80;44.70
26224;DHT22;14820;48.682;8.890;2022-07-19T13:54:06;32.80;45.60
26224;DHT22;14820;48.682;8.890;2022-07-19T13:56:32;32.70;45.80
26224;DHT22;14820;48.682;8.890;2022-07-19T13:58:58;32.80;45.70
26224;DHT22;14820;48.682;8.890;2022-07-19T14:01:25;32.70;45.60
26224;DHT22;14820;48.682;8.890;2022-07-19T14:03:52;32.80;46.00
26224;DHT22;14820;48.682;8.890;2022-07-19T14:06:17;32.70;46.00
26224;DHT22;14820;48.682;8.890;2022-07-19T14:08:43;32.70;46.30
26224;DHT22;14820;48.682;8.890;2022-07-19T14:11:09;32.70;46.00
26224;DHT22;14820;48.682;8.890;2022-07-19T14:13:35;32.70;46.20
26224;DHT22;14820;48.682;8.890;2022-07-19T14:16:01;32.80;46.50
26224;DHT22;14820;48.682;8.890;2022-07-19T14:18:29;32.80;45.50
26224;DHT22;14820;48.682;8.890;2022-07-19T14:20:56;32.80;45.30
26224;DHT22;14820;48.682;8.890;2022-07-19T14:23:22;32.70;45.00
26224;DHT22;14820;48.682;8.890;2022-07-19T14:25:48;32.70;45.30
26224;DHT22;14820;48.682;8.890;2022-07-19T14:28:14;32.70;45.30
26224;DHT22;14820;48.682;8.890;2022-07-19T14:30:42;32.70;45.60
26224;DHT22;14820;48.682;8.890;2022-07-19T14:33:08;32.70;45.30
26224;DHT22;14820;48.682;8.890;2022-07-19T14:35:33;32.70;45.10
26224;DHT22;14820;48.682;8.890;2022-07-19T14:37:59;32.80;44.80
26224;DHT22;14820;48.682;8.890;2022-07-19T14:40:25;32.70;44.90
26224;DHT22;14820;48.682;8.890;2022-07-19T14:42:50;32.70;44.70
26224;DHT22;14820;48.682;8.890;2022-07-19T14:45:16;32.70;45.00
26224;DHT22;14820;48.682;8.890;2022-07-19T14:47:42;32.70;44.80
26224;DHT22;14820;48.682;8.890;2022-07-19T14:50:09;32.80;44.20
26224;DHT22;14820;48.682;8.890;2022-07-19T14:52:35;32.80;44.20
26224;DHT22;14820;48.682;8.890;2022-07-19T14:55:02;32.70;44.30
26224;DHT22;14820;48.682;8.890;2022-07-19T14:57:28;32.70;44.60
26224;DHT22;14820;48.682;8.890;2022-07-19T14:59:54;32.70;44.80
26224;DHT22;14820;48.682;8.890;2022-07-19T15:02:20;32.70;44.70
26224;DHT22;14820;48.682;8.890;2022-07-19T15:04:46;32.70;44.10
26224;DHT22;14820;48.682;8.890;2022-07-19T15:07:12;32.70;44.50
26224;DHT22;14820;48.682;8.890;2022-07-19T15:09:38;32.60;44.30
26224;DHT22;14820;48.682;8.890;2022-07-19T15:12:04;32.60;44.30
26224;DHT22;14820;48.682;8.890;2022-07-19T15:14:30;32.70;45.30
26224;DHT22;14820;48.682;8.890;2022-07-19T15:16:57;32.80;44.10
26224;DHT22;14820;48.682;8.890;2022-07-19T15:19:23;32.80;43.80
26224;DHT22;14820;48.682;8.890;2022-07-19T15:21:49;32.80;43.90
26224;DHT22;14820;48.682;8.890;2022-07-19T15:24:15;32.80;44.10
26224;DHT22;14820;48.682;8.890;2022-07-19T15:26:41;32.80;44.10
26224;DHT22;14820;48.682;8.890;2022-07-19T15:29:06;32.80;44.10
26224;DHT22;14820;48.682;8.890;2022-07-19T15:31:32;32.80;43.60
26224;DHT22;14820;48.682;8.890;2022-07-19T15:33:58;32.70;43.70
26224;DHT22;14820;48.682;8.890;2022-07-19T15:36:24;32.70;43.80
26224;DHT22;14820;48.682;8.890;2022-07-19T15:38:50;32.70;44.00
26224;DHT22;14820;48.682;8.890;2022-07-19T15:41:16;32.70;43.80
26224;DHT22;14820;48.682;8.890;2022-07-19T15:43:45;32.70;44.10
26224;DHT22;14820;48.682;8.890;2022-07-19T15:46:10;32.80;43.50
26224;DHT22;14820;48.682;8.890;2022-07-19T15:48:39;32.70;43.20